sensor_id;sensor_type;location;lat;lon;timestamp;P1;durP1;ratioP1;P2;durP2;ratioP2
48789;SDS011;41718;51.980;5.734;2023-05-10T00:03:32;39.17;;;23.63;;
48789;SDS011;41718;51.980;5.734;2023-05-10T00:08:46;43.88;;;25.73;;
48789;SDS011;41718;51.980;5.734;2023-05-10T00:13:51;44.28;;;25.42;;
48789;SDS011;41718;51.980;5.734;2023-05-10T00:18:53;42.40;;;23.90;;
48789;SDS011;41718;51.980;5.734;2023-05-10T00:23:57;44.92;;;26.95;;
48789;SDS011;41718;51.980;5.734;2023-05-10T00:28:59;50.20;;;29.98;;
48789;SDS011;41718;51.980;5.734;2023-05-10T00:34:00;52.25;;;28.40;;
48789;SDS011;41718;51.980;5.734;2023-05-10T00:39:02;51.83;;;29.60;;
48789;SDS011;41718;51.980;5.734;2023-05-10T00:44:04;50.67;;;30.50;;
48789;SDS011;41718;51.980;5.734;2023-05-10T00:49:06;45.03;;;28.00;;
48789;SDS011;41718;51.980;5.734;2023-05-10T00:54:08;47.05;;;29.17;;
48789;SDS011;41718;51.980;5.734;2023-05-10T00:59:12;56.40;;;30.75;;
48789;SDS011;41718;51.980;5.734;2023-05-10T01:04:13;55.35;;;31.20;;
48789;SDS011;41718;51.980;5.734;2023-05-10T01:09:15;53.53;;;30.02;;
48789;SDS011;41718;51.980;5.734;2023-05-10T01:14:18;54.10;;;29.80;;
48789;SDS011;41718;51.980;5.734;2023-05-10T01:19:24;55.55;;;30.60;;
48789;SDS011;41718;51.980;5.734;2023-05-10T01:24:40;57.67;;;31.17;;
48789;SDS011;41718;51.980;5.734;2023-05-10T01:30:00;60.28;;;31.77;;
48789;SDS011;41718;51.980;5.734;2023-05-10T01:35:17;51.08;;;27.80;;
48789;SDS011;41718;51.980;5.734;2023-05-10T01:40:23;47.30;;;25.80;;
48789;SDS011;41718;51.980;5.734;2023-05-10T01:45:39;48.08;;;23.98;;
48789;SDS011;41718;51.980;5.734;2023-05-10T01:50:46;42.55;;;24.25;;
48789;SDS011;41718;51.980;5.734;2023-05-10T01:55:52;46.17;;;25.75;;
48789;SDS011;41718;51.980;5.734;2023-05-10T02:00:56;39.25;;;22.60;;
48789;SDS011;41718;51.980;5.734;2023-05-10T02:06:01;47.83;;;26.63;;
48789;SDS011;41718;51.980;5.734;2023-05-10T02:11:04;48.75;;;27.63;;
48789;SDS011;41718;51.980;5.734;2023-05-10T02:16:06;44.83;;;26.13;;
48789;SDS011;41718;51.980;5.734;2023-05-10T02:21:08;47.65;;;25.35;;
48789;SDS011;41718;51.980;5.734;2023-05-10T02:26:11;47.97;;;30.02;;
48789;SDS011;41718;51.980;5.734;2023-05-10T02:31:14;47.22;;;26.35;;
48789;SDS011;41718;51.980;5.734;2023-05-10T02:36:17;49.65;;;27.88;;
48789;SDS011;41718;51.980;5.734;2023-05-10T02:41:21;46.83;;;26.40;;
48789;SDS011;41718;51.980;5.734;2023-05-10T02:46:24;43.78;;;26.58;;
48789;SDS011;41718;51.980;5.734;2023-05-10T02:51:26;47.35;;;24.73;;
48789;SDS011;41718;51.980;5.734;2023-05-10T02:56:33;46.28;;;24.98;;
48789;SDS011;41718;51.980;5.734;2023-05-10T03:01:36;48.67;;;27.17;;
48789;SDS011;41718;51.980;5.734;2023-05-10T03:06:38;51.70;;;27.77;;
48789;SDS011;41718;51.980;5.734;2023-05-10T03:11:49;49.60;;;24.10;;
48789;SDS011;41718;51.980;5.734;2023-05-10T03:17:06;44.22;;;24.20;;
48789;SDS011;41718;51.980;5.734;2023-05-10T03:22:12;42.42;;;24.17;;
48789;SDS011;41718;51.980;5.734;2023-05-10T03:32:21;48.05;;;28.08;;
48789;SDS011;41718;51.980;5.734;2023-05-10T03:37:23;48.42;;;28.13;;
48789;SDS011;41718;51.980;5.734;2023-05-10T03:42:25;41.08;;;25.30;;
48789;SDS011;41718;51.980;5.734;2023-05-10T03:47:26;46.30;;;25.33;;
48789;SDS011;41718;51.980;5.734;2023-05-10T03:52:28;44.28;;;25.27;;
48789;SDS011;41718;51.980;5.734;2023-05-10T03:57:29;40.15;;;25.95;;
48789;SDS011;41718;51.980;5.734;2023-05-10T04:02:31;44.40;;;24.30;;
48789;SDS011;41718;51.980;5.734;2023-05-10T04:07:33;44.83;;;26.40;;
48789;SDS011;41718;51.980;5.734;2023-05-10T04:12:34;44.85;;;25.92;;
48789;SDS011;41718;51.980;5.734;2023-05-10T04:17:36;51.05;;;24.77;;
48789;SDS011;41718;51.980;5.734;2023-05-10T04:22:37;46.58;;;25.90;;
48789;SDS011;41718;51.980;5.734;2023-05-10T04:27:39;34.47;;;18.55;;
48789;SDS011;41718;51.980;5.734;2023-05-10T04:32:40;37.25;;;21.38;;
48789;SDS011;41718;51.980;5.734;2023-05-10T04:37:42;44.97;;;24.60;;
48789;SDS011;41718;51.980;5.734;2023-05-10T04:42:44;43.42;;;24.35;;
48789;SDS011;41718;51.980;5.734;2023-05-10T04:47:45;40.85;;;24.48;;
48789;SDS011;41718;51.980;5.734;2023-05-10T04:52:47;46.15;;;26.20;;
48789;SDS011;41718;51.980;5.734;2023-05-10T04:57:48;38.35;;;22.45;;
48789;SDS011;41718;51.980;5.734;2023-05-10T05:02:50;34.33;;;20.60;;
48789;SDS011;41718;51.980;5.734;2023-05-10T05:07:51;34.10;;;19.92;;
48789;SDS011;41718;51.980;5.734;2023-05-10T05:12:53;43.65;;;22.75;;
48789;SDS011;41718;51.980;5.734;2023-05-10T05:17:54;43.90;;;23.45;;
48789;SDS011;41718;51.980;5.734;2023-05-10T05:22:56;42.25;;;22.65;;
48789;SDS011;41718;51.980;5.734;2023-05-10T05:27:57;41.45;;;22.73;;
48789;SDS011;41718;51.980;5.734;2023-05-10T05:32:59;43.20;;;23.10;;
48789;SDS011;41718;51.980;5.734;2023-05-10T05:38:00;43.58;;;23.95;;
48789;SDS011;41718;51.980;5.734;2023-05-10T05:43:02;47.00;;;24.48;;
48789;SDS011;41718;51.980;5.734;2023-05-10T05:48:03;46.42;;;24.27;;
48789;SDS011;41718;51.980;5.734;2023-05-10T05:53:05;48.67;;;25.20;;
48789;SDS011;41718;51.980;5.734;2023-05-10T05:58:07;45.70;;;23.00;;
48789;SDS011;41718;51.980;5.734;2023-05-10T06:03:08;43.63;;;22.95;;
48789;SDS011;41718;51.980;5.734;2023-05-10T06:08:10;49.03;;;23.05;;
48789;SDS011;41718;51.980;5.734;2023-05-10T06:13:11;47.53;;;22.60;;
48789;SDS011;41718;51.980;5.734;2023-05-10T06:18:13;42.20;;;23.58;;
48789;SDS011;41718;51.980;5.734;2023-05-10T06:23:14;40.33;;;22.08;;
48789;SDS011;41718;51.980;5.734;2023-05-10T06:28:16;45.53;;;24.23;;
48789;SDS011;41718;51.980;5.734;2023-05-10T06:33:17;45.65;;;26.45;;
48789;SDS011;41718;51.980;5.734;2023-05-10T06:38:19;45.20;;;24.58;;
48789;SDS011;41718;51.980;5.734;2023-05-10T06:43:20;53.55;;;27.88;;
48789;SDS011;41718;51.980;5.734;2023-05-10T06:48:22;52.25;;;26.92;;
48789;SDS011;41718;51.980;5.734;2023-05-10T06:53:24;50.25;;;26.77;;
48789;SDS011;41718;51.980;5.734;2023-05-10T06:58:25;59.13;;;28.95;;
48789;SDS011;41718;51.980;5.734;2023-05-10T07:03:27;54.75;;;27.90;;
48789;SDS011;41718;51.980;5.734;2023-05-10T07:08:29;48.97;;;23.67;;
48789;SDS011;41718;51.980;5.734;2023-05-10T07:13:31;50.92;;;26.48;;
48789;SDS011;41718;51.980;5.734;2023-05-10T07:18:33;48.17;;;27.33;;
48789;SDS011;41718;51.980;5.734;2023-05-10T07:23:35;47.10;;;25.88;;
48789;SDS011;41718;51.980;5.734;2023-05-10T07:28:36;46.58;;;24.13;;
48789;SDS011;41718;51.980;5.734;2023-05-10T07:33:39;57.55;;;27.33;;
48789;SDS011;41718;51.980;5.734;2023-05-10T07:38:41;44.22;;;24.30;;
48789;SDS011;41718;51.980;5.734;2023-05-10T07:43:42;38.88;;;23.00;;
48789;SDS011;41718;51.980;5.734;2023-05-10T07:48:43;48.47;;;25.25;;
48789;SDS011;41718;51.980;5.734;2023-05-10T07:53:45;45.35;;;25.52;;
48789;SDS011;41718;51.980;5.734;2023-05-10T07:58:46;45.55;;;23.70;;
48789;SDS011;41718;51.980;5.734;2023-05-10T08:03:48;38.75;;;22.63;;
48789;SDS011;41718;51.980;5.734;2023-05-10T08:08:50;23.13;;;13.20;;
48789;SDS011;41718;51.980;5.734;2023-05-10T08:13:52;29.95;;;15.70;;
48789;SDS011;41718;51.980;5.734;2023-05-10T08:18:54;23.42;;;14.55;;
48789;SDS011;41718;51.980;5.734;2023-05-10T08:23:56;23.52;;;13.95;;
48789;SDS011;41718;51.980;5.734;2023-05-10T08:28:58;21.65;;;12.88;;
48789;SDS011;41718;51.980;5.734;2023-05-10T08:34:00;16.83;;;9.90;;
48789;SDS011;41718;51.980;5.734;2023-05-10T08:39:01;21.02;;;11.75;;
48789;SDS011;41718;51.980;5.734;2023-05-10T08:44:03;16.88;;;10.10;;
48789;SDS011;41718;51.980;5.734;2023-05-10T08:49:06;16.48;;;9.18;;
48789;SDS011;41718;51.980;5.734;2023-05-10T08:54:11;13.20;;;8.88;;
48789;SDS011;41718;51.980;5.734;2023-05-10T08:59:13;11.85;;;7.40;;
48789;SDS011;41718;51.980;5.734;2023-05-10T09:04:15;15.38;;;9.10;;
48789;SDS011;41718;51.980;5.734;2023-05-10T09:09:17;12.13;;;7.38;;
48789;SDS011;41718;51.980;5.734;2023-05-10T09:14:19;16.58;;;9.25;;
48789;SDS011;41718;51.980;5.734;2023-05-10T09:19:21;14.98;;;9.55;;
48789;SDS011;41718;51.980;5.734;2023-05-10T09:24:26;18.25;;;9.43;;
48789;SDS011;41718;51.980;5.734;2023-05-10T09:29:41;10.98;;;7.07;;
48789;SDS011;41718;51.980;5.734;2023-05-10T09:34:43;10.73;;;6.82;;
48789;SDS011;41718;51.980;5.734;2023-05-10T09:39:46;11.35;;;7.25;;
48789;SDS011;41718;51.980;5.734;2023-05-10T09:44:47;12.00;;;7.85;;
48789;SDS011;41718;51.980;5.734;2023-05-10T09:49:49;11.13;;;6.95;;
48789;SDS011;41718;51.980;5.734;2023-05-10T09:54:52;14.63;;;7.70;;
48789;SDS011;41718;51.980;5.734;2023-05-10T09:59:55;10.60;;;6.93;;
48789;SDS011;41718;51.980;5.734;2023-05-10T10:05:00;11.55;;;7.68;;
48789;SDS011;41718;51.980;5.734;2023-05-10T10:10:04;10.75;;;7.38;;
48789;SDS011;41718;51.980;5.734;2023-05-10T10:15:07;12.35;;;8.48;;
48789;SDS011;41718;51.980;5.734;2023-05-10T10:20:10;13.30;;;7.50;;
48789;SDS011;41718;51.980;5.734;2023-05-10T10:25:13;12.60;;;7.13;;
48789;SDS011;41718;51.980;5.734;2023-05-10T10:35:36;10.80;;;8.02;;
48789;SDS011;41718;51.980;5.734;2023-05-10T10:40:38;10.63;;;7.68;;
48789;SDS011;41718;51.980;5.734;2023-05-10T10:45:39;14.25;;;8.43;;
48789;SDS011;41718;51.980;5.734;2023-05-10T10:50:45;12.68;;;8.32;;
48789;SDS011;41718;51.980;5.734;2023-05-10T10:55:48;13.93;;;8.45;;
48789;SDS011;41718;51.980;5.734;2023-05-10T11:00:49;12.40;;;8.63;;
48789;SDS011;41718;51.980;5.734;2023-05-10T11:05:53;14.27;;;8.35;;
48789;SDS011;41718;51.980;5.734;2023-05-10T11:21:18;10.55;;;7.15;;
48789;SDS011;41718;51.980;5.734;2023-05-10T11:26:19;11.52;;;7.35;;
48789;SDS011;41718;51.980;5.734;2023-05-10T11:31:26;13.40;;;7.20;;
48789;SDS011;41718;51.980;5.734;2023-05-10T11:36:32;10.82;;;7.10;;
48789;SDS011;41718;51.980;5.734;2023-05-10T11:41:35;9.57;;;6.45;;
48789;SDS011;41718;51.980;5.734;2023-05-10T11:46:36;9.70;;;7.00;;
48789;SDS011;41718;51.980;5.734;2023-05-10T11:51:38;11.25;;;6.32;;
48789;SDS011;41718;51.980;5.734;2023-05-10T11:56:44;10.02;;;6.30;;
48789;SDS011;41718;51.980;5.734;2023-05-10T12:01:46;7.55;;;6.00;;
48789;SDS011;41718;51.980;5.734;2023-05-10T12:06:48;7.35;;;5.68;;
48789;SDS011;41718;51.980;5.734;2023-05-10T12:11:49;9.82;;;6.50;;
48789;SDS011;41718;51.980;5.734;2023-05-10T12:16:58;8.25;;;5.68;;
48789;SDS011;41718;51.980;5.734;2023-05-10T12:21:59;10.05;;;5.18;;
48789;SDS011;41718;51.980;5.734;2023-05-10T12:27:04;7.13;;;5.43;;
48789;SDS011;41718;51.980;5.734;2023-05-10T12:32:36;8.50;;;4.97;;
48789;SDS011;41718;51.980;5.734;2023-05-10T12:37:47;9.82;;;4.60;;
48789;SDS011;41718;51.980;5.734;2023-05-10T12:42:50;7.43;;;5.18;;
48789;SDS011;41718;51.980;5.734;2023-05-10T12:47:53;7.25;;;5.60;;
48789;SDS011;41718;51.980;5.734;2023-05-10T12:52:54;6.03;;;4.75;;
48789;SDS011;41718;51.980;5.734;2023-05-10T12:57:56;7.95;;;5.20;;
48789;SDS011;41718;51.980;5.734;2023-05-10T13:02:57;6.75;;;4.43;;
48789;SDS011;41718;51.980;5.734;2023-05-10T13:07:59;9.23;;;4.82;;
48789;SDS011;41718;51.980;5.734;2023-05-10T13:13:00;7.50;;;4.65;;
48789;SDS011;41718;51.980;5.734;2023-05-10T13:18:02;7.82;;;5.57;;
48789;SDS011;41718;51.980;5.734;2023-05-10T13:23:03;6.85;;;6.18;;
48789;SDS011;41718;51.980;5.734;2023-05-10T13:28:05;7.80;;;6.60;;
48789;SDS011;41718;51.980;5.734;2023-05-10T13:33:07;9.23;;;6.10;;
48789;SDS011;41718;51.980;5.734;2023-05-10T13:38:08;8.68;;;7.00;;
48789;SDS011;41718;51.980;5.734;2023-05-10T13:43:10;9.02;;;7.65;;
48789;SDS011;41718;51.980;5.734;2023-05-10T13:48:11;8.60;;;7.20;;
48789;SDS011;41718;51.980;5.734;2023-05-10T13:53:13;10.23;;;7.38;;
48789;SDS011;41718;51.980;5.734;2023-05-10T13:58:15;10.93;;;8.52;;
48789;SDS011;41718;51.980;5.734;2023-05-10T14:03:16;7.20;;;6.30;;
48789;SDS011;41718;51.980;5.734;2023-05-10T14:08:18;6.97;;;5.70;;
48789;SDS011;41718;51.980;5.734;2023-05-10T14:13:20;5.35;;;4.13;;
48789;SDS011;41718;51.980;5.734;2023-05-10T14:18:21;5.72;;;3.53;;
48789;SDS011;41718;51.980;5.734;2023-05-10T14:23:23;6.93;;;4.05;;
48789;SDS011;41718;51.980;5.734;2023-05-10T14:28:29;5.68;;;4.50;;
48789;SDS011;41718;51.980;5.734;2023-05-10T14:33:31;5.18;;;4.68;;
48789;SDS011;41718;51.980;5.734;2023-05-10T14:38:32;6.45;;;3.95;;
48789;SDS011;41718;51.980;5.734;2023-05-10T14:43:34;5.13;;;3.95;;
48789;SDS011;41718;51.980;5.734;2023-05-10T14:48:37;4.00;;;3.47;;
48789;SDS011;41718;51.980;5.734;2023-05-10T14:53:38;4.78;;;2.97;;
48789;SDS011;41718;51.980;5.734;2023-05-10T14:58:40;3.88;;;3.05;;
48789;SDS011;41718;51.980;5.734;2023-05-10T15:03:41;4.05;;;3.13;;
48789;SDS011;41718;51.980;5.734;2023-05-10T15:08:43;4.60;;;4.15;;
48789;SDS011;41718;51.980;5.734;2023-05-10T15:13:44;3.95;;;3.13;;
48789;SDS011;41718;51.980;5.734;2023-05-10T15:18:46;4.82;;;3.67;;
48789;SDS011;41718;51.980;5.734;2023-05-10T15:23:47;7.82;;;4.28;;
48789;SDS011;41718;51.980;5.734;2023-05-10T15:28:49;5.95;;;3.63;;
48789;SDS011;41718;51.980;5.734;2023-05-10T15:33:50;4.93;;;3.45;;
48789;SDS011;41718;51.980;5.734;2023-05-10T15:38:55;5.78;;;4.13;;
48789;SDS011;41718;51.980;5.734;2023-05-10T15:43:57;4.15;;;3.38;;
48789;SDS011;41718;51.980;5.734;2023-05-10T15:49:00;6.95;;;4.32;;
48789;SDS011;41718;51.980;5.734;2023-05-10T15:54:02;3.78;;;2.90;;
48789;SDS011;41718;51.980;5.734;2023-05-10T15:59:08;5.03;;;2.72;;
48789;SDS011;41718;51.980;5.734;2023-05-10T16:04:11;5.53;;;3.50;;
48789;SDS011;41718;51.980;5.734;2023-05-10T16:09:15;7.22;;;3.28;;
48789;SDS011;41718;51.980;5.734;2023-05-10T16:14:17;5.22;;;3.10;;
48789;SDS011;41718;51.980;5.734;2023-05-10T16:19:20;5.63;;;3.30;;
48789;SDS011;41718;51.980;5.734;2023-05-10T16:24:22;5.85;;;4.63;;
48789;SDS011;41718;51.980;5.734;2023-05-10T16:29:24;5.38;;;4.60;;
48789;SDS011;41718;51.980;5.734;2023-05-10T16:34:26;7.82;;;5.10;;
48789;SDS011;41718;51.980;5.734;2023-05-10T16:39:27;7.55;;;5.05;;
48789;SDS011;41718;51.980;5.734;2023-05-10T16:44:29;7.10;;;5.68;;
48789;SDS011;41718;51.980;5.734;2023-05-10T16:49:30;9.02;;;5.97;;
48789;SDS011;41718;51.980;5.734;2023-05-10T16:54:32;7.97;;;5.38;;
48789;SDS011;41718;51.980;5.734;2023-05-10T16:59:33;6.80;;;5.13;;
48789;SDS011;41718;51.980;5.734;2023-05-10T17:04:35;8.75;;;5.70;;
48789;SDS011;41718;51.980;5.734;2023-05-10T17:09:36;7.47;;;5.60;;
48789;SDS011;41718;51.980;5.734;2023-05-10T17:14:38;7.85;;;5.40;;
48789;SDS011;41718;51.980;5.734;2023-05-10T17:19:40;7.18;;;6.18;;
48789;SDS011;41718;51.980;5.734;2023-05-10T17:24:45;8.02;;;5.60;;
48789;SDS011;41718;51.980;5.734;2023-05-10T17:29:46;9.23;;;5.45;;
48789;SDS011;41718;51.980;5.734;2023-05-10T17:34:48;7.63;;;5.57;;
48789;SDS011;41718;51.980;5.734;2023-05-10T17:39:49;6.82;;;5.57;;
48789;SDS011;41718;51.980;5.734;2023-05-10T17:44:50;9.27;;;5.03;;
48789;SDS011;41718;51.980;5.734;2023-05-10T17:49:53;7.03;;;5.03;;
48789;SDS011;41718;51.980;5.734;2023-05-10T17:54:54;10.05;;;5.88;;
48789;SDS011;41718;51.980;5.734;2023-05-10T17:59:56;10.07;;;6.00;;
48789;SDS011;41718;51.980;5.734;2023-05-10T18:04:57;9.32;;;5.70;;
48789;SDS011;41718;51.980;5.734;2023-05-10T18:10:01;8.35;;;4.93;;
48789;SDS011;41718;51.980;5.734;2023-05-10T18:15:03;8.35;;;6.10;;
48789;SDS011;41718;51.980;5.734;2023-05-10T18:20:04;8.48;;;4.63;;
48789;SDS011;41718;51.980;5.734;2023-05-10T18:25:07;7.05;;;4.88;;
48789;SDS011;41718;51.980;5.734;2023-05-10T18:30:09;7.47;;;5.55;;
48789;SDS011;41718;51.980;5.734;2023-05-10T18:35:12;7.22;;;5.30;;
48789;SDS011;41718;51.980;5.734;2023-05-10T18:40:15;8.93;;;5.72;;
48789;SDS011;41718;51.980;5.734;2023-05-10T18:45:18;10.38;;;6.35;;
48789;SDS011;41718;51.980;5.734;2023-05-10T18:50:20;7.97;;;6.32;;
48789;SDS011;41718;51.980;5.734;2023-05-10T18:55:23;9.95;;;6.20;;
48789;SDS011;41718;51.980;5.734;2023-05-10T19:00:25;7.40;;;5.90;;
48789;SDS011;41718;51.980;5.734;2023-05-10T19:05:27;9.23;;;6.00;;
48789;SDS011;41718;51.980;5.734;2023-05-10T19:10:34;10.02;;;6.22;;
48789;SDS011;41718;51.980;5.734;2023-05-10T19:15:44;11.25;;;6.75;;
48789;SDS011;41718;51.980;5.734;2023-05-10T19:21:04;7.90;;;5.20;;
48789;SDS011;41718;51.980;5.734;2023-05-10T19:26:11;10.25;;;5.80;;
48789;SDS011;41718;51.980;5.734;2023-05-10T19:31:16;10.07;;;6.38;;
48789;SDS011;41718;51.980;5.734;2023-05-10T19:36:18;11.70;;;6.30;;
48789;SDS011;41718;51.980;5.734;2023-05-10T19:41:28;11.75;;;6.65;;
48789;SDS011;41718;51.980;5.734;2023-05-10T19:46:34;11.73;;;6.88;;
48789;SDS011;41718;51.980;5.734;2023-05-10T19:51:36;11.65;;;6.03;;
48789;SDS011;41718;51.980;5.734;2023-05-10T19:56:37;9.68;;;7.10;;
48789;SDS011;41718;51.980;5.734;2023-05-10T20:01:39;8.23;;;5.97;;
48789;SDS011;41718;51.980;5.734;2023-05-10T20:06:42;9.63;;;7.00;;
48789;SDS011;41718;51.980;5.734;2023-05-10T20:11:45;11.30;;;7.20;;
48789;SDS011;41718;51.980;5.734;2023-05-10T20:16:46;8.30;;;6.57;;
48789;SDS011;41718;51.980;5.734;2023-05-10T20:21:48;9.02;;;6.43;;
48789;SDS011;41718;51.980;5.734;2023-05-10T20:26:50;11.10;;;6.47;;
48789;SDS011;41718;51.980;5.734;2023-05-10T20:31:52;10.52;;;6.82;;
48789;SDS011;41718;51.980;5.734;2023-05-10T20:36:57;9.07;;;6.38;;
48789;SDS011;41718;51.980;5.734;2023-05-10T20:41:58;11.98;;;6.53;;
48789;SDS011;41718;51.980;5.734;2023-05-10T20:47:00;10.63;;;7.57;;
48789;SDS011;41718;51.980;5.734;2023-05-10T20:52:03;12.93;;;7.47;;
48789;SDS011;41718;51.980;5.734;2023-05-10T20:57:06;12.93;;;6.88;;
48789;SDS011;41718;51.980;5.734;2023-05-10T21:02:11;11.40;;;7.28;;
48789;SDS011;41718;51.980;5.734;2023-05-10T21:07:13;12.90;;;7.57;;
48789;SDS011;41718;51.980;5.734;2023-05-10T21:12:15;11.82;;;7.85;;
48789;SDS011;41718;51.980;5.734;2023-05-10T21:17:20;12.00;;;7.68;;
48789;SDS011;41718;51.980;5.734;2023-05-10T21:22:21;12.93;;;7.40;;
48789;SDS011;41718;51.980;5.734;2023-05-10T21:27:25;15.07;;;8.60;;
48789;SDS011;41718;51.980;5.734;2023-05-10T21:32:28;11.25;;;8.00;;
48789;SDS011;41718;51.980;5.734;2023-05-10T21:37:32;16.23;;;9.45;;
48789;SDS011;41718;51.980;5.734;2023-05-10T21:42:40;12.30;;;8.48;;
48789;SDS011;41718;51.980;5.734;2023-05-10T21:47:42;13.30;;;9.02;;
48789;SDS011;41718;51.980;5.734;2023-05-10T21:52:48;14.18;;;8.65;;
48789;SDS011;41718;51.980;5.734;2023-05-10T21:57:50;13.68;;;9.82;;
48789;SDS011;41718;51.980;5.734;2023-05-10T22:02:52;15.88;;;10.25;;
48789;SDS011;41718;51.980;5.734;2023-05-10T22:08:03;16.98;;;10.63;;
48789;SDS011;41718;51.980;5.734;2023-05-10T22:13:05;13.13;;;9.15;;
48789;SDS011;41718;51.980;5.734;2023-05-10T22:18:14;16.52;;;10.45;;
48789;SDS011;41718;51.980;5.734;2023-05-10T22:23:20;16.65;;;10.30;;
48789;SDS011;41718;51.980;5.734;2023-05-10T22:28:23;14.45;;;10.63;;
48789;SDS011;41718;51.980;5.734;2023-05-10T22:33:25;18.52;;;10.50;;
48789;SDS011;41718;51.980;5.734;2023-05-10T22:38:33;18.85;;;10.90;;
48789;SDS011;41718;51.980;5.734;2023-05-10T22:43:35;17.40;;;10.07;;
48789;SDS011;41718;51.980;5.734;2023-05-10T22:48:37;17.55;;;10.90;;
48789;SDS011;41718;51.980;5.734;2023-05-10T22:53:38;17.80;;;10.10;;
48789;SDS011;41718;51.980;5.734;2023-05-10T22:58:40;21.23;;;12.65;;
48789;SDS011;41718;51.980;5.734;2023-05-10T23:03:41;20.17;;;12.18;;
48789;SDS011;41718;51.980;5.734;2023-05-10T23:08:43;19.98;;;11.65;;
48789;SDS011;41718;51.980;5.734;2023-05-10T23:13:48;21.45;;;11.90;;
48789;SDS011;41718;51.980;5.734;2023-05-10T23:18:50;17.90;;;11.70;;
48789;SDS011;41718;51.980;5.734;2023-05-10T23:23:52;19.75;;;12.32;;
48789;SDS011;41718;51.980;5.734;2023-05-10T23:28:55;19.10;;;12.70;;
48789;SDS011;41718;51.980;5.734;2023-05-10T23:33:56;19.77;;;12.00;;
48789;SDS011;41718;51.980;5.734;2023-05-10T23:39:00;20.63;;;12.52;;
48789;SDS011;41718;51.980;5.734;2023-05-10T23:44:02;19.85;;;12.32;;
48789;SDS011;41718;51.980;5.734;2023-05-10T23:49:04;17.98;;;12.52;;
48789;SDS011;41718;51.980;5.734;2023-05-10T23:54:07;20.25;;;12.23;;
48789;SDS011;41718;51.980;5.734;2023-05-10T23:59:09;26.10;;;13.43;;
